sensor_id;sensor_type;location;lat;lon;timestamp;P1;durP1;ratioP1;P2;durP2;ratioP2
8007;SDS011;4049;49.468;11.200;2023-12-20T00:01:13;8.27;;;5.30;;
8007;SDS011;4049;49.468;11.200;2023-12-20T00:03:40;9.13;;;5.10;;
8007;SDS011;4049;49.468;11.200;2023-12-20T00:06:07;8.20;;;4.77;;
8007;SDS011;4049;49.468;11.200;2023-12-20T00:08:34;12.27;;;5.07;;
8007;SDS011;4049;49.468;11.200;2023-12-20T00:11:01;12.13;;;5.90;;
8007;SDS011;4049;49.468;11.200;2023-12-20T00:13:29;8.03;;;5.13;;
8007;SDS011;4049;49.468;11.200;2023-12-20T00:15:56;7.73;;;4.50;;
8007;SDS011;4049;49.468;11.200;2023-12-20T00:18:22;7.20;;;5.30;;
8007;SDS011;4049;49.468;11.200;2023-12-20T00:20:49;8.80;;;5.30;;
8007;SDS011;4049;49.468;11.200;2023-12-20T00:23:16;7.73;;;4.97;;
8007;SDS011;4049;49.468;11.200;2023-12-20T00:25:43;8.13;;;5.37;;
8007;SDS011;4049;49.468;11.200;2023-12-20T00:28:10;8.13;;;5.63;;
8007;SDS011;4049;49.468;11.200;2023-12-20T00:30:38;9.87;;;5.33;;
8007;SDS011;4049;49.468;11.200;2023-12-20T00:33:04;7.80;;;4.93;;
8007;SDS011;4049;49.468;11.200;2023-12-20T00:35:31;8.40;;;5.00;;
8007;SDS011;4049;49.468;11.200;2023-12-20T00:37:58;8.70;;;4.87;;
8007;SDS011;4049;49.468;11.200;2023-12-20T00:40:25;7.73;;;4.93;;
8007;SDS011;4049;49.468;11.200;2023-12-20T00:42:52;6.63;;;4.67;;
8007;SDS011;4049;49.468;11.200;2023-12-20T00:45:18;7.80;;;4.47;;
8007;SDS011;4049;49.468;11.200;2023-12-20T00:47:46;8.00;;;4.73;;
8007;SDS011;4049;49.468;11.200;2023-12-20T00:50:13;8.37;;;5.10;;
8007;SDS011;4049;49.468;11.200;2023-12-20T00:52:40;8.23;;;5.43;;
8007;SDS011;4049;49.468;11.200;2023-12-20T00:55:06;9.63;;;5.17;;
8007;SDS011;4049;49.468;11.200;2023-12-20T00:57:33;6.53;;;4.77;;
8007;SDS011;4049;49.468;11.200;2023-12-20T01:00:00;7.37;;;4.60;;
8007;SDS011;4049;49.468;11.200;2023-12-20T01:02:27;7.00;;;4.30;;
8007;SDS011;4049;49.468;11.200;2023-12-20T01:04:56;6.77;;;4.50;;
8007;SDS011;4049;49.468;11.200;2023-12-20T01:07:22;8.63;;;4.60;;
8007;SDS011;4049;49.468;11.200;2023-12-20T01:09:49;7.07;;;5.27;;
8007;SDS011;4049;49.468;11.200;2023-12-20T01:12:16;10.37;;;4.80;;
8007;SDS011;4049;49.468;11.200;2023-12-20T01:14:43;6.67;;;4.63;;
8007;SDS011;4049;49.468;11.200;2023-12-20T01:17:09;7.90;;;5.03;;
8007;SDS011;4049;49.468;11.200;2023-12-20T01:19:36;8.10;;;4.47;;
8007;SDS011;4049;49.468;11.200;2023-12-20T01:22:04;7.27;;;4.37;;
8007;SDS011;4049;49.468;11.200;2023-12-20T01:24:31;9.63;;;4.47;;
8007;SDS011;4049;49.468;11.200;2023-12-20T01:26:58;8.80;;;4.40;;
8007;SDS011;4049;49.468;11.200;2023-12-20T01:29:25;8.30;;;4.57;;
8007;SDS011;4049;49.468;11.200;2023-12-20T01:31:52;5.53;;;3.87;;
8007;SDS011;4049;49.468;11.200;2023-12-20T01:34:18;7.03;;;4.43;;
8007;SDS011;4049;49.468;11.200;2023-12-20T01:36:45;7.67;;;3.83;;
8007;SDS011;4049;49.468;11.200;2023-12-20T01:39:13;4.83;;;3.63;;
8007;SDS011;4049;49.468;11.200;2023-12-20T01:41:40;5.73;;;3.17;;
8007;SDS011;4049;49.468;11.200;2023-12-20T01:44:07;4.87;;;3.30;;
8007;SDS011;4049;49.468;11.200;2023-12-20T01:46:34;4.90;;;3.03;;
8007;SDS011;4049;49.468;11.200;2023-12-20T01:49:00;3.77;;;2.60;;
8007;SDS011;4049;49.468;11.200;2023-12-20T01:51:28;3.83;;;2.70;;
8007;SDS011;4049;49.468;11.200;2023-12-20T01:53:58;2.87;;;2.20;;
8007;SDS011;4049;49.468;11.200;2023-12-20T01:56:28;3.37;;;2.50;;
8007;SDS011;4049;49.468;11.200;2023-12-20T01:58:56;5.03;;;2.07;;
8007;SDS011;4049;49.468;11.200;2023-12-20T02:01:24;4.90;;;2.30;;
8007;SDS011;4049;49.468;11.200;2023-12-20T02:03:53;2.27;;;1.83;;
8007;SDS011;4049;49.468;11.200;2023-12-20T02:06:21;3.73;;;2.20;;
8007;SDS011;4049;49.468;11.200;2023-12-20T02:08:49;3.80;;;2.13;;
8007;SDS011;4049;49.468;11.200;2023-12-20T02:11:16;2.97;;;2.00;;
8007;SDS011;4049;49.468;11.200;2023-12-20T02:13:44;2.47;;;1.80;;
8007;SDS011;4049;49.468;11.200;2023-12-20T02:16:11;3.43;;;2.20;;
8007;SDS011;4049;49.468;11.200;2023-12-20T02:18:38;2.60;;;1.60;;
8007;SDS011;4049;49.468;11.200;2023-12-20T02:21:05;2.00;;;1.73;;
8007;SDS011;4049;49.468;11.200;2023-12-20T02:23:33;2.03;;;1.60;;
8007;SDS011;4049;49.468;11.200;2023-12-20T02:26:00;2.50;;;1.80;;
8007;SDS011;4049;49.468;11.200;2023-12-20T02:28:27;3.70;;;1.80;;
8007;SDS011;4049;49.468;11.200;2023-12-20T02:30:55;2.30;;;1.77;;
8007;SDS011;4049;49.468;11.200;2023-12-20T02:33:21;2.00;;;1.60;;
8007;SDS011;4049;49.468;11.200;2023-12-20T02:35:48;1.90;;;1.53;;
8007;SDS011;4049;49.468;11.200;2023-12-20T02:38:15;2.40;;;1.60;;
8007;SDS011;4049;49.468;11.200;2023-12-20T02:40:43;2.27;;;1.57;;
8007;SDS011;4049;49.468;11.200;2023-12-20T02:43:10;1.80;;;1.27;;
8007;SDS011;4049;49.468;11.200;2023-12-20T02:45:37;1.20;;;1.10;;
8007;SDS011;4049;49.468;11.200;2023-12-20T02:48:04;1.90;;;1.30;;
8007;SDS011;4049;49.468;11.200;2023-12-20T02:50:31;1.23;;;1.13;;
8007;SDS011;4049;49.468;11.200;2023-12-20T02:52:58;1.20;;;1.10;;
8007;SDS011;4049;49.468;11.200;2023-12-20T02:55:25;2.23;;;1.40;;
8007;SDS011;4049;49.468;11.200;2023-12-20T02:57:53;1.30;;;1.00;;
8007;SDS011;4049;49.468;11.200;2023-12-20T03:00:20;1.70;;;1.20;;
8007;SDS011;4049;49.468;11.200;2023-12-20T03:02:47;1.20;;;1.10;;
8007;SDS011;4049;49.468;11.200;2023-12-20T03:05:13;1.10;;;1.00;;
8007;SDS011;4049;49.468;11.200;2023-12-20T03:07:40;1.00;;;1.00;;
8007;SDS011;4049;49.468;11.200;2023-12-20T03:10:07;1.83;;;1.33;;
8007;SDS011;4049;49.468;11.200;2023-12-20T03:12:35;1.27;;;1.10;;
8007;SDS011;4049;49.468;11.200;2023-12-20T03:15:03;1.10;;;1.00;;
8007;SDS011;4049;49.468;11.200;2023-12-20T03:17:30;1.00;;;0.93;;
8007;SDS011;4049;49.468;11.200;2023-12-20T03:19:57;1.17;;;1.07;;
8007;SDS011;4049;49.468;11.200;2023-12-20T03:22:24;1.10;;;1.00;;
8007;SDS011;4049;49.468;11.200;2023-12-20T03:24:51;1.80;;;1.40;;
8007;SDS011;4049;49.468;11.200;2023-12-20T03:27:17;2.30;;;1.00;;
8007;SDS011;4049;49.468;11.200;2023-12-20T03:29:44;1.10;;;1.00;;
8007;SDS011;4049;49.468;11.200;2023-12-20T03:32:12;0.87;;;0.83;;
8007;SDS011;4049;49.468;11.200;2023-12-20T03:34:39;1.27;;;0.90;;
8007;SDS011;4049;49.468;11.200;2023-12-20T03:37:06;2.80;;;1.10;;
8007;SDS011;4049;49.468;11.200;2023-12-20T03:39:33;1.87;;;1.20;;
8007;SDS011;4049;49.468;11.200;2023-12-20T03:42:00;1.30;;;1.10;;
8007;SDS011;4049;49.468;11.200;2023-12-20T03:44:26;1.10;;;1.00;;
8007;SDS011;4049;49.468;11.200;2023-12-20T03:46:52;1.20;;;1.10;;
8007;SDS011;4049;49.468;11.200;2023-12-20T03:49:20;1.73;;;1.20;;
8007;SDS011;4049;49.468;11.200;2023-12-20T03:51:47;1.30;;;1.20;;
8007;SDS011;4049;49.468;11.200;2023-12-20T03:54:14;1.20;;;1.10;;
8007;SDS011;4049;49.468;11.200;2023-12-20T03:56:44;1.13;;;1.10;;
8007;SDS011;4049;49.468;11.200;2023-12-20T03:59:10;1.07;;;0.97;;
8007;SDS011;4049;49.468;11.200;2023-12-20T04:01:37;1.33;;;1.17;;
8007;SDS011;4049;49.468;11.200;2023-12-20T04:04:04;1.53;;;1.20;;
8007;SDS011;4049;49.468;11.200;2023-12-20T04:06:32;1.33;;;1.17;;
8007;SDS011;4049;49.468;11.200;2023-12-20T04:08:59;0.93;;;0.93;;
8007;SDS011;4049;49.468;11.200;2023-12-20T04:11:26;1.20;;;1.10;;
8007;SDS011;4049;49.468;11.200;2023-12-20T04:13:53;2.10;;;1.43;;
8007;SDS011;4049;49.468;11.200;2023-12-20T04:16:19;1.30;;;1.20;;
8007;SDS011;4049;49.468;11.200;2023-12-20T04:18:46;1.43;;;1.33;;
8007;SDS011;4049;49.468;11.200;2023-12-20T04:21:13;2.40;;;1.50;;
8007;SDS011;4049;49.468;11.200;2023-12-20T04:23:41;2.73;;;1.40;;
8007;SDS011;4049;49.468;11.200;2023-12-20T04:26:08;1.83;;;1.37;;
8007;SDS011;4049;49.468;11.200;2023-12-20T04:28:35;1.30;;;1.20;;
8007;SDS011;4049;49.468;11.200;2023-12-20T04:31:01;1.47;;;1.20;;
8007;SDS011;4049;49.468;11.200;2023-12-20T04:33:28;2.00;;;1.30;;
8007;SDS011;4049;49.468;11.200;2023-12-20T04:35:55;2.73;;;1.53;;
8007;SDS011;4049;49.468;11.200;2023-12-20T04:38:22;2.33;;;1.20;;
8007;SDS011;4049;49.468;11.200;2023-12-20T04:40:50;1.40;;;1.30;;
8007;SDS011;4049;49.468;11.200;2023-12-20T04:43:17;1.50;;;1.40;;
8007;SDS011;4049;49.468;11.200;2023-12-20T04:45:44;2.60;;;1.50;;
8007;SDS011;4049;49.468;11.200;2023-12-20T04:48:11;1.60;;;1.27;;
8007;SDS011;4049;49.468;11.200;2023-12-20T04:50:38;2.10;;;1.33;;
8007;SDS011;4049;49.468;11.200;2023-12-20T04:53:05;2.43;;;1.40;;
8007;SDS011;4049;49.468;11.200;2023-12-20T04:55:32;2.10;;;1.60;;
8007;SDS011;4049;49.468;11.200;2023-12-20T04:58:00;1.40;;;1.30;;
8007;SDS011;4049;49.468;11.200;2023-12-20T05:00:27;1.77;;;1.40;;
8007;SDS011;4049;49.468;11.200;2023-12-20T05:02:55;3.40;;;1.37;;
8007;SDS011;4049;49.468;11.200;2023-12-20T05:05:22;2.33;;;1.43;;
8007;SDS011;4049;49.468;11.200;2023-12-20T05:07:48;2.07;;;1.30;;
8007;SDS011;4049;49.468;11.200;2023-12-20T05:10:15;2.10;;;1.30;;
8007;SDS011;4049;49.468;11.200;2023-12-20T05:12:42;1.50;;;1.40;;
8007;SDS011;4049;49.468;11.200;2023-12-20T05:15:10;1.53;;;1.20;;
8007;SDS011;4049;49.468;11.200;2023-12-20T05:17:37;2.00;;;1.60;;
8007;SDS011;4049;49.468;11.200;2023-12-20T05:20:04;1.67;;;1.30;;
8007;SDS011;4049;49.468;11.200;2023-12-20T05:22:32;1.40;;;1.20;;
8007;SDS011;4049;49.468;11.200;2023-12-20T05:24:59;1.83;;;1.33;;
8007;SDS011;4049;49.468;11.200;2023-12-20T05:27:26;2.77;;;1.40;;
8007;SDS011;4049;49.468;11.200;2023-12-20T05:29:53;2.13;;;1.47;;
8007;SDS011;4049;49.468;11.200;2023-12-20T05:32:23;3.43;;;1.47;;
8007;SDS011;4049;49.468;11.200;2023-12-20T05:34:50;1.53;;;1.40;;
8007;SDS011;4049;49.468;11.200;2023-12-20T05:37:17;1.77;;;1.30;;
8007;SDS011;4049;49.468;11.200;2023-12-20T05:39:44;1.80;;;1.60;;
8007;SDS011;4049;49.468;11.200;2023-12-20T05:42:11;2.60;;;1.50;;
8007;SDS011;4049;49.468;11.200;2023-12-20T05:44:38;2.27;;;1.60;;
8007;SDS011;4049;49.468;11.200;2023-12-20T05:47:05;1.70;;;1.53;;
8007;SDS011;4049;49.468;11.200;2023-12-20T05:49:33;2.30;;;1.80;;
8007;SDS011;4049;49.468;11.200;2023-12-20T05:52:00;1.83;;;1.53;;
8007;SDS011;4049;49.468;11.200;2023-12-20T05:54:27;2.07;;;1.77;;
8007;SDS011;4049;49.468;11.200;2023-12-20T05:56:53;2.50;;;1.60;;
8007;SDS011;4049;49.468;11.200;2023-12-20T05:59:20;2.17;;;1.90;;
8007;SDS011;4049;49.468;11.200;2023-12-20T06:01:47;1.70;;;1.60;;
8007;SDS011;4049;49.468;11.200;2023-12-20T06:04:14;1.50;;;1.40;;
8007;SDS011;4049;49.468;11.200;2023-12-20T06:06:43;2.33;;;1.47;;
8007;SDS011;4049;49.468;11.200;2023-12-20T06:09:10;1.90;;;1.70;;
8007;SDS011;4049;49.468;11.200;2023-12-20T06:11:37;1.60;;;1.50;;
8007;SDS011;4049;49.468;11.200;2023-12-20T06:14:04;2.47;;;1.67;;
8007;SDS011;4049;49.468;11.200;2023-12-20T06:16:31;3.10;;;1.70;;
8007;SDS011;4049;49.468;11.200;2023-12-20T06:19:01;2.37;;;1.50;;
8007;SDS011;4049;49.468;11.200;2023-12-20T06:21:28;1.77;;;1.67;;
8007;SDS011;4049;49.468;11.200;2023-12-20T06:23:56;2.77;;;1.73;;
8007;SDS011;4049;49.468;11.200;2023-12-20T06:26:24;2.70;;;1.80;;
8007;SDS011;4049;49.468;11.200;2023-12-20T06:28:51;1.80;;;1.63;;
8007;SDS011;4049;49.468;11.200;2023-12-20T06:31:18;2.20;;;2.00;;
8007;SDS011;4049;49.468;11.200;2023-12-20T06:33:45;2.07;;;1.87;;
8007;SDS011;4049;49.468;11.200;2023-12-20T06:36:13;2.57;;;1.90;;
8007;SDS011;4049;49.468;11.200;2023-12-20T06:38:40;1.93;;;1.73;;
8007;SDS011;4049;49.468;11.200;2023-12-20T06:41:10;3.17;;;1.87;;
8007;SDS011;4049;49.468;11.200;2023-12-20T06:43:39;2.40;;;1.90;;
8007;SDS011;4049;49.468;11.200;2023-12-20T06:46:07;2.30;;;2.00;;
8007;SDS011;4049;49.468;11.200;2023-12-20T06:48:34;3.10;;;2.03;;
8007;SDS011;4049;49.468;11.200;2023-12-20T06:51:01;2.40;;;2.20;;
8007;SDS011;4049;49.468;11.200;2023-12-20T06:53:28;2.77;;;2.27;;
8007;SDS011;4049;49.468;11.200;2023-12-20T06:55:55;2.33;;;2.00;;
8007;SDS011;4049;49.468;11.200;2023-12-20T06:58:23;2.53;;;2.33;;
8007;SDS011;4049;49.468;11.200;2023-12-20T07:00:50;4.63;;;2.63;;
8007;SDS011;4049;49.468;11.200;2023-12-20T07:03:17;4.20;;;2.57;;
8007;SDS011;4049;49.468;11.200;2023-12-20T07:05:44;4.50;;;3.03;;
8007;SDS011;4049;49.468;11.200;2023-12-20T07:08:11;4.37;;;2.93;;
8007;SDS011;4049;49.468;11.200;2023-12-20T07:10:39;5.17;;;4.00;;
8007;SDS011;4049;49.468;11.200;2023-12-20T07:13:06;5.30;;;2.90;;
8007;SDS011;4049;49.468;11.200;2023-12-20T07:15:34;3.90;;;2.70;;
8007;SDS011;4049;49.468;11.200;2023-12-20T07:18:02;5.47;;;3.50;;
8007;SDS011;4049;49.468;11.200;2023-12-20T07:20:30;3.73;;;2.63;;
8007;SDS011;4049;49.468;11.200;2023-12-20T07:22:57;3.33;;;2.70;;
8007;SDS011;4049;49.468;11.200;2023-12-20T07:25:23;6.50;;;2.60;;
8007;SDS011;4049;49.468;11.200;2023-12-20T07:27:50;3.67;;;2.97;;
8007;SDS011;4049;49.468;11.200;2023-12-20T07:30:18;5.87;;;2.90;;
8007;SDS011;4049;49.468;11.200;2023-12-20T07:32:46;4.57;;;3.37;;
8007;SDS011;4049;49.468;11.200;2023-12-20T07:35:15;5.90;;;3.60;;
8007;SDS011;4049;49.468;11.200;2023-12-20T07:37:42;3.57;;;3.20;;
8007;SDS011;4049;49.468;11.200;2023-12-20T07:40:09;4.57;;;3.27;;
8007;SDS011;4049;49.468;11.200;2023-12-20T07:42:36;4.50;;;3.50;;
8007;SDS011;4049;49.468;11.200;2023-12-20T07:45:04;5.47;;;3.50;;
8007;SDS011;4049;49.468;11.200;2023-12-20T07:47:31;6.17;;;3.80;;
8007;SDS011;4049;49.468;11.200;2023-12-20T07:49:59;5.83;;;4.03;;
8007;SDS011;4049;49.468;11.200;2023-12-20T07:52:26;8.53;;;4.57;;
8007;SDS011;4049;49.468;11.200;2023-12-20T07:54:53;8.07;;;3.77;;
8007;SDS011;4049;49.468;11.200;2023-12-20T07:57:20;4.37;;;3.10;;
8007;SDS011;4049;49.468;11.200;2023-12-20T07:59:47;3.53;;;3.20;;
8007;SDS011;4049;49.468;11.200;2023-12-20T08:02:13;4.20;;;3.50;;
8007;SDS011;4049;49.468;11.200;2023-12-20T08:04:41;5.33;;;3.80;;
8007;SDS011;4049;49.468;11.200;2023-12-20T08:07:09;4.57;;;3.20;;
8007;SDS011;4049;49.468;11.200;2023-12-20T08:09:36;5.13;;;3.70;;
8007;SDS011;4049;49.468;11.200;2023-12-20T08:12:03;6.03;;;3.83;;
8007;SDS011;4049;49.468;11.200;2023-12-20T08:14:30;4.97;;;3.67;;
8007;SDS011;4049;49.468;11.200;2023-12-20T08:16:57;5.50;;;3.67;;
8007;SDS011;4049;49.468;11.200;2023-12-20T08:19:24;5.33;;;3.87;;
8007;SDS011;4049;49.468;11.200;2023-12-20T08:21:51;8.90;;;5.13;;
8007;SDS011;4049;49.468;11.200;2023-12-20T08:24:19;6.53;;;4.27;;
8007;SDS011;4049;49.468;11.200;2023-12-20T08:26:46;4.90;;;4.40;;
8007;SDS011;4049;49.468;11.200;2023-12-20T08:29:13;7.50;;;4.17;;
8007;SDS011;4049;49.468;11.200;2023-12-20T08:31:40;7.50;;;4.60;;
8007;SDS011;4049;49.468;11.200;2023-12-20T08:34:07;5.90;;;4.50;;
8007;SDS011;4049;49.468;11.200;2023-12-20T08:36:33;5.47;;;4.10;;
8007;SDS011;4049;49.468;11.200;2023-12-20T08:39:00;5.40;;;3.83;;
8007;SDS011;4049;49.468;11.200;2023-12-20T08:41:30;4.87;;;3.40;;
8007;SDS011;4049;49.468;11.200;2023-12-20T08:43:57;6.53;;;4.40;;
8007;SDS011;4049;49.468;11.200;2023-12-20T08:46:24;4.57;;;3.77;;
8007;SDS011;4049;49.468;11.200;2023-12-20T08:48:50;4.93;;;3.80;;
8007;SDS011;4049;49.468;11.200;2023-12-20T08:51:17;4.93;;;3.80;;
8007;SDS011;4049;49.468;11.200;2023-12-20T08:53:44;5.63;;;3.60;;
8007;SDS011;4049;49.468;11.200;2023-12-20T08:56:12;4.27;;;3.40;;
8007;SDS011;4049;49.468;11.200;2023-12-20T08:58:41;5.13;;;3.63;;
8007;SDS011;4049;49.468;11.200;2023-12-20T09:01:08;6.37;;;4.00;;
8007;SDS011;4049;49.468;11.200;2023-12-20T09:03:35;4.70;;;3.57;;
8007;SDS011;4049;49.468;11.200;2023-12-20T09:06:02;5.07;;;4.10;;
8007;SDS011;4049;49.468;11.200;2023-12-20T09:08:29;6.23;;;4.23;;
8007;SDS011;4049;49.468;11.200;2023-12-20T09:10:58;6.67;;;4.20;;
8007;SDS011;4049;49.468;11.200;2023-12-20T09:13:27;4.60;;;2.90;;
8007;SDS011;4049;49.468;11.200;2023-12-20T09:15:55;5.57;;;3.30;;
8007;SDS011;4049;49.468;11.200;2023-12-20T09:18:22;4.27;;;3.17;;
8007;SDS011;4049;49.468;11.200;2023-12-20T09:20:49;5.37;;;4.17;;
8007;SDS011;4049;49.468;11.200;2023-12-20T09:23:16;7.27;;;3.77;;
8007;SDS011;4049;49.468;11.200;2023-12-20T09:25:43;5.97;;;3.20;;
8007;SDS011;4049;49.468;11.200;2023-12-20T09:28:10;5.00;;;3.03;;
8007;SDS011;4049;49.468;11.200;2023-12-20T09:30:37;7.20;;;3.27;;
8007;SDS011;4049;49.468;11.200;2023-12-20T09:33:06;3.60;;;3.13;;
8007;SDS011;4049;49.468;11.200;2023-12-20T09:35:33;4.07;;;3.13;;
8007;SDS011;4049;49.468;11.200;2023-12-20T09:38:00;4.57;;;2.73;;
8007;SDS011;4049;49.468;11.200;2023-12-20T09:40:27;5.03;;;3.57;;
8007;SDS011;4049;49.468;11.200;2023-12-20T09:42:55;5.03;;;3.00;;
8007;SDS011;4049;49.468;11.200;2023-12-20T09:45:23;5.43;;;3.30;;
8007;SDS011;4049;49.468;11.200;2023-12-20T09:47:51;6.80;;;2.90;;
8007;SDS011;4049;49.468;11.200;2023-12-20T09:50:21;6.73;;;3.20;;
8007;SDS011;4049;49.468;11.200;2023-12-20T09:52:49;7.00;;;3.00;;
8007;SDS011;4049;49.468;11.200;2023-12-20T09:55:17;4.30;;;2.73;;
8007;SDS011;4049;49.468;11.200;2023-12-20T09:57:44;3.40;;;2.50;;
8007;SDS011;4049;49.468;11.200;2023-12-20T10:00:12;5.37;;;2.43;;
8007;SDS011;4049;49.468;11.200;2023-12-20T10:02:41;6.13;;;2.57;;
8007;SDS011;4049;49.468;11.200;2023-12-20T10:05:12;3.37;;;2.40;;
8007;SDS011;4049;49.468;11.200;2023-12-20T10:07:45;3.60;;;1.90;;
8007;SDS011;4049;49.468;11.200;2023-12-20T10:10:12;2.73;;;2.30;;
8007;SDS011;4049;49.468;11.200;2023-12-20T10:12:39;3.30;;;1.93;;
8007;SDS011;4049;49.468;11.200;2023-12-20T10:15:06;5.03;;;2.53;;
8007;SDS011;4049;49.468;11.200;2023-12-20T10:17:35;4.77;;;2.20;;
8007;SDS011;4049;49.468;11.200;2023-12-20T10:20:02;2.47;;;1.87;;
8007;SDS011;4049;49.468;11.200;2023-12-20T10:22:34;3.97;;;2.50;;
8007;SDS011;4049;49.468;11.200;2023-12-20T10:25:03;4.73;;;2.00;;
8007;SDS011;4049;49.468;11.200;2023-12-20T10:27:31;4.20;;;2.10;;
8007;SDS011;4049;49.468;11.200;2023-12-20T10:29:58;3.37;;;2.00;;
8007;SDS011;4049;49.468;11.200;2023-12-20T10:32:26;2.50;;;1.90;;
8007;SDS011;4049;49.468;11.200;2023-12-20T10:34:54;3.50;;;2.20;;
8007;SDS011;4049;49.468;11.200;2023-12-20T10:37:21;2.53;;;1.80;;
8007;SDS011;4049;49.468;11.200;2023-12-20T10:39:49;4.93;;;1.80;;
8007;SDS011;4049;49.468;11.200;2023-12-20T10:42:19;2.40;;;1.70;;
8007;SDS011;4049;49.468;11.200;2023-12-20T10:44:50;3.90;;;1.83;;
8007;SDS011;4049;49.468;11.200;2023-12-20T10:47:19;3.90;;;1.70;;
8007;SDS011;4049;49.468;11.200;2023-12-20T10:49:46;4.50;;;1.87;;
8007;SDS011;4049;49.468;11.200;2023-12-20T10:52:13;3.00;;;2.00;;
8007;SDS011;4049;49.468;11.200;2023-12-20T10:54:40;4.17;;;1.90;;
8007;SDS011;4049;49.468;11.200;2023-12-20T10:57:07;3.43;;;2.27;;
8007;SDS011;4049;49.468;11.200;2023-12-20T10:59:36;2.93;;;2.20;;
8007;SDS011;4049;49.468;11.200;2023-12-20T11:02:04;5.17;;;1.83;;
8007;SDS011;4049;49.468;11.200;2023-12-20T11:04:36;2.57;;;2.33;;
8007;SDS011;4049;49.468;11.200;2023-12-20T11:07:12;3.50;;;1.97;;
8007;SDS011;4049;49.468;11.200;2023-12-20T11:09:47;5.47;;;2.20;;
8007;SDS011;4049;49.468;11.200;2023-12-20T11:12:22;4.87;;;2.30;;
8007;SDS011;4049;49.468;11.200;2023-12-20T11:14:59;4.40;;;2.30;;
8007;SDS011;4049;49.468;11.200;2023-12-20T11:17:29;3.47;;;2.00;;
8007;SDS011;4049;49.468;11.200;2023-12-20T11:20:04;4.53;;;2.20;;
8007;SDS011;4049;49.468;11.200;2023-12-20T11:22:36;5.07;;;2.13;;
8007;SDS011;4049;49.468;11.200;2023-12-20T11:25:07;4.63;;;1.80;;
8007;SDS011;4049;49.468;11.200;2023-12-20T11:27:35;4.80;;;1.90;;
8007;SDS011;4049;49.468;11.200;2023-12-20T11:30:05;5.53;;;2.37;;
8007;SDS011;4049;49.468;11.200;2023-12-20T11:32:34;5.40;;;2.00;;
8007;SDS011;4049;49.468;11.200;2023-12-20T11:35:01;4.73;;;1.70;;
8007;SDS011;4049;49.468;11.200;2023-12-20T11:37:43;5.47;;;2.00;;
8007;SDS011;4049;49.468;11.200;2023-12-20T11:40:13;4.13;;;1.90;;
8007;SDS011;4049;49.468;11.200;2023-12-20T11:42:43;2.53;;;1.93;;
8007;SDS011;4049;49.468;11.200;2023-12-20T11:45:13;6.90;;;3.03;;
8007;SDS011;4049;49.468;11.200;2023-12-20T11:47:42;4.00;;;2.10;;
8007;SDS011;4049;49.468;11.200;2023-12-20T11:50:10;3.87;;;1.80;;
8007;SDS011;4049;49.468;11.200;2023-12-20T11:52:37;4.20;;;1.83;;
8007;SDS011;4049;49.468;11.200;2023-12-20T11:55:04;3.53;;;1.90;;
8007;SDS011;4049;49.468;11.200;2023-12-20T11:57:31;4.43;;;1.77;;
8007;SDS011;4049;49.468;11.200;2023-12-20T11:59:58;4.13;;;1.97;;
8007;SDS011;4049;49.468;11.200;2023-12-20T12:02:27;3.90;;;2.10;;
8007;SDS011;4049;49.468;11.200;2023-12-20T12:04:54;3.83;;;1.90;;
8007;SDS011;4049;49.468;11.200;2023-12-20T12:07:21;3.40;;;2.20;;
8007;SDS011;4049;49.468;11.200;2023-12-20T12:09:48;4.03;;;2.00;;
8007;SDS011;4049;49.468;11.200;2023-12-20T12:12:15;5.67;;;2.00;;
8007;SDS011;4049;49.468;11.200;2023-12-20T12:14:43;3.57;;;2.07;;
8007;SDS011;4049;49.468;11.200;2023-12-20T12:17:14;4.47;;;2.07;;
8007;SDS011;4049;49.468;11.200;2023-12-20T12:19:43;3.80;;;1.93;;
8007;SDS011;4049;49.468;11.200;2023-12-20T12:22:10;6.37;;;2.40;;
8007;SDS011;4049;49.468;11.200;2023-12-20T12:24:39;6.47;;;2.47;;
8007;SDS011;4049;49.468;11.200;2023-12-20T12:27:06;7.47;;;2.73;;
8007;SDS011;4049;49.468;11.200;2023-12-20T12:29:33;4.20;;;2.43;;
8007;SDS011;4049;49.468;11.200;2023-12-20T12:32:00;4.47;;;2.07;;
8007;SDS011;4049;49.468;11.200;2023-12-20T12:34:30;3.93;;;2.40;;
8007;SDS011;4049;49.468;11.200;2023-12-20T12:36:58;4.10;;;2.47;;
8007;SDS011;4049;49.468;11.200;2023-12-20T12:39:25;4.87;;;2.43;;
8007;SDS011;4049;49.468;11.200;2023-12-20T12:41:52;6.20;;;2.50;;
8007;SDS011;4049;49.468;11.200;2023-12-20T12:44:19;5.17;;;2.30;;
8007;SDS011;4049;49.468;11.200;2023-12-20T12:46:48;7.40;;;2.53;;
8007;SDS011;4049;49.468;11.200;2023-12-20T12:49:16;5.70;;;2.60;;
8007;SDS011;4049;49.468;11.200;2023-12-20T12:51:43;4.50;;;2.40;;
8007;SDS011;4049;49.468;11.200;2023-12-20T12:54:11;5.00;;;1.93;;
8007;SDS011;4049;49.468;11.200;2023-12-20T12:56:41;5.90;;;2.17;;
8007;SDS011;4049;49.468;11.200;2023-12-20T12:59:08;4.53;;;2.03;;
8007;SDS011;4049;49.468;11.200;2023-12-20T13:01:37;4.10;;;2.10;;
8007;SDS011;4049;49.468;11.200;2023-12-20T13:04:05;3.63;;;2.07;;
8007;SDS011;4049;49.468;11.200;2023-12-20T13:06:35;7.13;;;2.43;;
8007;SDS011;4049;49.468;11.200;2023-12-20T13:09:02;2.80;;;2.47;;
8007;SDS011;4049;49.468;11.200;2023-12-20T13:11:33;2.83;;;2.40;;
8007;SDS011;4049;49.468;11.200;2023-12-20T13:14:00;3.77;;;2.20;;
8007;SDS011;4049;49.468;11.200;2023-12-20T13:16:28;5.90;;;1.87;;
8007;SDS011;4049;49.468;11.200;2023-12-20T13:18:55;4.57;;;2.20;;
8007;SDS011;4049;49.468;11.200;2023-12-20T13:21:24;3.83;;;2.20;;
8007;SDS011;4049;49.468;11.200;2023-12-20T13:23:50;5.30;;;2.30;;
8007;SDS011;4049;49.468;11.200;2023-12-20T13:26:18;3.57;;;2.47;;
8007;SDS011;4049;49.468;11.200;2023-12-20T13:28:47;3.97;;;2.30;;
8007;SDS011;4049;49.468;11.200;2023-12-20T13:31:14;4.80;;;2.30;;
8007;SDS011;4049;49.468;11.200;2023-12-20T13:33:40;2.83;;;2.03;;
8007;SDS011;4049;49.468;11.200;2023-12-20T13:36:07;5.00;;;1.87;;
8007;SDS011;4049;49.468;11.200;2023-12-20T13:38:34;3.90;;;2.30;;
8007;SDS011;4049;49.468;11.200;2023-12-20T13:41:01;3.97;;;1.97;;
8007;SDS011;4049;49.468;11.200;2023-12-20T13:43:29;5.47;;;2.20;;
8007;SDS011;4049;49.468;11.200;2023-12-20T13:45:58;3.27;;;1.70;;
8007;SDS011;4049;49.468;11.200;2023-12-20T13:48:26;5.47;;;1.87;;
8007;SDS011;4049;49.468;11.200;2023-12-20T13:50:52;5.23;;;1.93;;
8007;SDS011;4049;49.468;11.200;2023-12-20T13:53:20;3.30;;;2.20;;
8007;SDS011;4049;49.468;11.200;2023-12-20T13:55:46;3.43;;;1.60;;
8007;SDS011;4049;49.468;11.200;2023-12-20T13:58:13;3.03;;;2.00;;
8007;SDS011;4049;49.468;11.200;2023-12-20T14:00:40;2.67;;;1.90;;
8007;SDS011;4049;49.468;11.200;2023-12-20T14:03:08;7.10;;;2.20;;
8007;SDS011;4049;49.468;11.200;2023-12-20T14:05:35;6.30;;;2.37;;
8007;SDS011;4049;49.468;11.200;2023-12-20T14:08:02;5.20;;;2.47;;
8007;SDS011;4049;49.468;11.200;2023-12-20T14:10:29;4.63;;;2.83;;
8007;SDS011;4049;49.468;11.200;2023-12-20T14:12:56;4.00;;;2.07;;
8007;SDS011;4049;49.468;11.200;2023-12-20T14:15:23;5.83;;;2.53;;
8007;SDS011;4049;49.468;11.200;2023-12-20T14:17:50;4.93;;;2.30;;
8007;SDS011;4049;49.468;11.200;2023-12-20T14:20:19;5.23;;;2.23;;
8007;SDS011;4049;49.468;11.200;2023-12-20T14:22:46;5.77;;;2.00;;
8007;SDS011;4049;49.468;11.200;2023-12-20T14:25:13;3.20;;;2.10;;
8007;SDS011;4049;49.468;11.200;2023-12-20T14:27:41;3.57;;;1.90;;
8007;SDS011;4049;49.468;11.200;2023-12-20T14:30:09;9.07;;;2.77;;
8007;SDS011;4049;49.468;11.200;2023-12-20T14:32:36;2.50;;;2.00;;
8007;SDS011;4049;49.468;11.200;2023-12-20T14:35:04;3.67;;;1.83;;
8007;SDS011;4049;49.468;11.200;2023-12-20T14:37:34;2.93;;;2.00;;
8007;SDS011;4049;49.468;11.200;2023-12-20T14:40:04;4.63;;;2.10;;
8007;SDS011;4049;49.468;11.200;2023-12-20T14:42:35;3.60;;;2.10;;
8007;SDS011;4049;49.468;11.200;2023-12-20T14:45:03;2.43;;;1.87;;
8007;SDS011;4049;49.468;11.200;2023-12-20T14:47:30;3.67;;;1.87;;
8007;SDS011;4049;49.468;11.200;2023-12-20T14:49:57;5.20;;;2.10;;
8007;SDS011;4049;49.468;11.200;2023-12-20T14:52:24;3.87;;;2.17;;
8007;SDS011;4049;49.468;11.200;2023-12-20T14:54:53;4.33;;;1.90;;
8007;SDS011;4049;49.468;11.200;2023-12-20T14:57:20;3.60;;;2.30;;
8007;SDS011;4049;49.468;11.200;2023-12-20T14:59:47;5.00;;;2.10;;
8007;SDS011;4049;49.468;11.200;2023-12-20T15:02:14;4.87;;;2.20;;